Time;durP1;ratioP1;P1;durP2;ratioP2;P2;SDS_P1;SDS_P2;PMS_P1;PMS_P2;Temp;Humidity;BMP_temperature;BMP_pressure;BME280_temperature;BME280_humidity;BME280_pressure;Samples;Min_cycle;Max_cycle;Signal;HPM_P1;HPM_P2
2023/12/04 00:01:04;;;;;;;22.17;10.83;;;;;;;-6.36;100.00;101657.66;5063143;28;20924;-74
2023/12/04 00:03:30;;;;;;;25.23;11.77;;;;;;;-6.40;100.00;101652.09;5046357;28;20801;-73
2023/12/04 00:05:57;;;;;;;25.13;11.37;;;;;;;-6.40;100.00;101641.00;5052242;28;20446;-74
2023/12/04 00:08:23;;;;;;;26.43;12.77;;;;;;;-6.41;100.00;101636.88;5072565;28;20475;-74
2023/12/04 00:10:51;;;;;;;26.77;12.43;;;;;;;-6.40;100.00;101636.69;5051465;28;20461;-73
2023/12/04 00:13:18;;;;;;;27.03;10.93;;;;;;;-6.40;100.00;101631.53;5054862;28;20932;-73
2023/12/04 00:15:45;;;;;;;20.67;10.80;;;;;;;-6.45;100.00;101631.31;5054569;28;20452;-74
2023/12/04 00:18:13;;;;;;;21.63;11.07;;;;;;;-6.52;100.00;101630.47;5053217;28;21004;-74
2023/12/04 00:20:39;;;;;;;25.63;12.90;;;;;;;-6.49;100.00;101624.16;5054614;28;20441;-73
2023/12/04 00:23:05;;;;;;;24.13;11.73;;;;;;;-6.45;100.00;101626.19;5054528;28;20456;-73
2023/12/04 00:25:32;;;;;;;21.20;10.33;;;;;;;-6.49;100.00;101627.53;5052962;28;20468;-74
2023/12/04 00:27:58;;;;;;;25.53;12.47;;;;;;;-6.47;100.00;101619.63;5044626;28;20492;-73
2023/12/04 00:30:24;;;;;;;24.20;11.10;;;;;;;-6.53;100.00;101622.97;5054922;28;20449;-74
2023/12/04 00:32:51;;;;;;;28.07;11.80;;;;;;;-6.44;100.00;101619.25;5054508;28;21064;-74
2023/12/04 00:35:18;;;;;;;22.63;11.20;;;;;;;-6.53;100.00;101620.41;5054186;28;20971;-73
2023/12/04 00:37:45;;;;;;;26.60;12.03;;;;;;;-6.57;100.00;101621.75;5054089;28;20480;-73
2023/12/04 00:40:11;;;;;;;30.13;13.20;;;;;;;-6.58;100.00;101625.31;5051576;28;20563;-73
2023/12/04 00:42:38;;;;;;;32.50;13.77;;;;;;;-6.63;100.00;101623.28;5044509;28;20441;-73
2023/12/04 00:45:05;;;;;;;23.67;10.40;;;;;;;-6.65;100.00;101624.44;5053230;28;20540;-73
2023/12/04 00:47:31;;;;;;;29.70;12.20;;;;;;;-6.69;100.00;101629.19;5062222;28;20848;-73
2023/12/04 00:49:57;;;;;;;30.73;13.60;;;;;;;-6.68;100.00;101628.19;5039915;28;20465;-73
2023/12/04 00:52:25;;;;;;;27.67;11.73;;;;;;;-6.74;100.00;101633.31;5052014;28;20447;-73
2023/12/04 00:54:51;;;;;;;28.30;11.73;;;;;;;-6.78;100.00;101635.44;5053769;28;20445;-73
2023/12/04 00:57:18;;;;;;;29.50;12.43;;;;;;;-6.77;100.00;101641.38;5048351;28;20467;-73
2023/12/04 00:59:44;;;;;;;24.70;11.50;;;;;;;-6.75;100.00;101637.63;5052999;28;20442;-73
2023/12/04 01:02:10;;;;;;;25.50;11.00;;;;;;;-6.76;100.00;101641.19;5054065;28;20452;-73
2023/12/04 01:04:40;;;;;;;25.47;11.17;;;;;;;-6.81;100.00;101633.25;5052045;28;20461;-73
2023/12/04 01:07:06;;;;;;;26.47;11.93;;;;;;;-6.83;100.00;101637.75;5056390;28;20483;-73
2023/12/04 01:09:36;;;;;;;26.13;11.57;;;;;;;-6.86;100.00;101638.16;5053805;28;20454;-74
2023/12/04 01:12:05;;;;;;;24.57;10.97;;;;;;;-6.88;100.00;101640.09;5049412;28;20447;-73
2023/12/04 01:14:32;;;;;;;29.80;11.97;;;;;;;-6.85;100.00;101644.06;5057754;28;20943;-73
2023/12/04 01:16:59;;;;;;;26.17;12.13;;;;;;;-6.87;100.00;101638.31;5050959;28;20468;-73
2023/12/04 01:19:25;;;;;;;25.33;11.90;;;;;;;-6.87;100.00;101626.28;5054225;28;20464;-73
2023/12/04 01:21:52;;;;;;;26.27;11.30;;;;;;;-6.87;100.00;101631.44;5051060;28;20451;-73
2023/12/04 01:24:19;;;;;;;28.37;11.67;;;;;;;-6.86;100.00;101627.06;5052466;28;20797;-73
2023/12/04 01:26:47;;;;;;;27.20;12.53;;;;;;;-6.85;100.00;101632.03;5050437;28;20484;-73
2023/12/04 01:29:13;;;;;;;25.67;12.13;;;;;;;-6.79;100.00;101627.94;5051298;28;20467;-73
2023/12/04 01:31:39;;;;;;;28.07;11.37;;;;;;;-6.81;100.00;101627.31;5052877;28;20452;-73
2023/12/04 01:34:06;;;;;;;25.43;10.97;;;;;;;-6.80;100.00;101634.03;5049603;28;20459;-73
2023/12/04 01:36:33;;;;;;;27.17;12.67;;;;;;;-6.82;100.00;101629.09;5050140;28;20543;-74
2023/12/04 01:39:00;;;;;;;25.07;11.00;;;;;;;-6.76;100.00;101633.47;5048408;28;20464;-74
2023/12/04 01:41:26;;;;;;;26.77;11.87;;;;;;;-6.82;100.00;101631.66;5051816;28;20462;-73
2023/12/04 01:43:54;;;;;;;26.53;11.90;;;;;;;-6.85;100.00;101632.03;5052331;28;20812;-74
2023/12/04 01:46:21;;;;;;;27.57;12.40;;;;;;;-6.81;100.00;101625.53;5051468;28;20469;-73
2023/12/04 01:48:47;;;;;;;28.67;13.13;;;;;;;-6.86;100.00;101616.81;5062108;28;20448;-73
2023/12/04 01:51:15;;;;;;;28.80;11.53;;;;;;;-6.78;100.00;101616.69;5059584;28;20438;-74
2023/12/04 01:53:43;;;;;;;28.47;12.07;;;;;;;-6.80;100.00;101611.72;5047093;28;20454;-74
2023/12/04 01:56:11;;;;;;;35.20;14.10;;;;;;;-6.82;100.00;101606.00;5048527;28;20461;-74
2023/12/04 01:58:38;;;;;;;38.50;14.83;;;;;;;-6.87;100.00;101613.47;5048521;28;20499;-74
2023/12/04 02:01:06;;;;;;;34.10;13.60;;;;;;;-6.85;100.00;101610.69;5042186;28;20435;-74
2023/12/04 02:03:33;;;;;;;37.73;15.43;;;;;;;-6.84;100.00;101610.50;5051024;28;20456;-74
2023/12/04 02:06:02;;;;;;;42.23;15.47;;;;;;;-6.89;100.00;101609.50;5051414;28;20446;-74
2023/12/04 02:08:29;;;;;;;42.73;18.80;;;;;;;-6.88;100.00;101613.63;5051458;28;20466;-74
2023/12/04 02:10:55;;;;;;;40.27;17.57;;;;;;;-6.85;100.00;101606.34;5052294;28;20516;-74
2023/12/04 02:13:22;;;;;;;39.27;17.80;;;;;;;-6.84;100.00;101602.81;5052782;28;20454;-73
2023/12/04 02:15:52;;;;;;;39.17;16.10;;;;;;;-6.79;100.00;101594.56;5046074;28;20541;-74
2023/12/04 02:18:22;;;;;;;39.77;15.77;;;;;;;-6.82;100.00;101587.22;5052319;28;20526;-73
2023/12/04 02:20:48;;;;;;;33.53;13.23;;;;;;;-6.87;100.00;101587.78;5052465;28;20441;-73
2023/12/04 02:23:14;;;;;;;34.57;16.00;;;;;;;-6.91;100.00;101584.00;5051615;28;20442;-73
2023/12/04 02:25:42;;;;;;;33.87;15.23;;;;;;;-6.90;100.00;101584.78;5052447;28;20810;-73
2023/12/04 02:28:14;;;;;;;31.97;15.20;;;;;;;-6.83;100.00;101581.28;5050877;28;20480;-74
2023/12/04 02:30:43;;;;;;;34.27;14.60;;;;;;;-6.87;100.00;101580.09;5042365;28;20941;-74
2023/12/04 02:33:12;;;;;;;36.90;15.03;;;;;;;-6.88;100.00;101586.19;5052254;28;20467;-74
2023/12/04 02:35:41;;;;;;;29.20;13.10;;;;;;;-6.91;100.00;101585.75;5043997;28;20437;-74
2023/12/04 02:38:08;;;;;;;31.60;13.83;;;;;;;-6.94;100.00;101588.72;5055733;28;20477;-73
2023/12/04 02:40:35;;;;;;;31.93;13.70;;;;;;;-6.99;100.00;101589.25;5047555;28;20444;-73
2023/12/04 02:43:03;;;;;;;34.90;14.47;;;;;;;-6.99;100.00;101607.22;5049518;28;20446;-73
2023/12/04 02:45:29;;;;;;;32.17;13.00;;;;;;;-7.02;100.00;101594.78;5050025;28;20441;-73
2023/12/04 02:47:55;;;;;;;31.47;13.00;;;;;;;-7.05;100.00;101586.66;5044791;28;20481;-74
2023/12/04 02:50:22;;;;;;;25.23;12.43;;;;;;;-7.04;100.00;101588.25;5051424;28;20817;-73
2023/12/04 02:52:48;;;;;;;27.37;12.50;;;;;;;-7.08;100.00;101581.91;5045935;28;20939;-73
2023/12/04 02:55:14;;;;;;;24.07;10.93;;;;;;;-7.08;100.00;101581.91;5050354;28;20452;-74
2023/12/04 02:57:41;;;;;;;26.60;12.50;;;;;;;-7.08;100.00;101582.69;5051823;28;20457;-73
2023/12/04 03:00:10;;;;;;;22.90;11.77;;;;;;;-7.05;100.00;101584.88;5051996;28;20453;-73
2023/12/04 03:02:36;;;;;;;24.63;12.23;;;;;;;-7.02;100.00;101589.66;5050516;28;20450;-74
2023/12/04 03:05:03;;;;;;;29.87;12.87;;;;;;;-6.94;100.00;101586.94;5051462;28;20449;-74
2023/12/04 03:07:29;;;;;;;30.33;13.40;;;;;;;-6.91;100.00;101580.63;5051037;28;20480;-73
2023/12/04 03:09:56;;;;;;;28.67;12.47;;;;;;;-6.93;100.00;101575.72;5050037;28;20465;-74
2023/12/04 03:12:22;;;;;;;23.57;11.77;;;;;;;-7.01;100.00;101568.13;5044619;28;20442;-74
2023/12/04 03:14:48;;;;;;;24.37;10.77;;;;;;;-7.04;100.00;101562.59;5048430;28;20448;-73
2023/12/04 03:17:16;;;;;;;28.30;11.53;;;;;;;-7.01;100.00;101562.19;5051319;28;20522;-73
2023/12/04 03:19:42;;;;;;;27.50;12.37;;;;;;;-7.01;100.00;101555.31;5048435;28;20450;-73
2023/12/04 03:22:09;;;;;;;28.37;11.07;;;;;;;-7.03;100.00;101553.91;5051483;28;20449;-74
2023/12/04 03:24:35;;;;;;;29.20;13.07;;;;;;;-7.05;100.00;101566.13;5049891;28;20818;-73
2023/12/04 03:27:02;;;;;;;25.67;11.50;;;;;;;-7.05;100.00;101553.31;5045544;28;20464;-73
2023/12/04 03:29:28;;;;;;;24.97;11.23;;;;;;;-6.94;100.00;101548.44;5054090;28;20460;-74
2023/12/04 03:31:54;;;;;;;21.20;11.53;;;;;;;-6.83;100.00;101550.47;5053380;28;20847;-74
2023/12/04 03:34:22;;;;;;;28.90;12.63;;;;;;;-6.89;100.00;101542.75;5048763;28;20482;-74
2023/12/04 03:36:48;;;;;;;26.77;12.03;;;;;;;-6.88;100.00;101539.97;5049822;28;20473;-73
2023/12/04 03:39:15;;;;;;;26.77;12.37;;;;;;;-6.87;100.00;101536.44;5051734;28;20460;-74
2023/12/04 03:41:41;;;;;;;26.80;11.30;;;;;;;-6.89;100.00;101529.91;5050694;28;20448;-73
2023/12/04 03:44:07;;;;;;;23.40;11.20;;;;;;;-6.84;100.00;101527.56;5051603;28;20437;-73
2023/12/04 03:46:34;;;;;;;21.93;11.00;;;;;;;-6.77;100.00;101539.47;5050806;28;20465;-73
2023/12/04 03:49:00;;;;;;;23.83;11.17;;;;;;;-6.68;100.00;101532.41;5049952;28;20479;-74
2023/12/04 03:51:28;;;;;;;25.73;11.80;;;;;;;-6.61;100.00;101528.06;5047857;28;20441;-73
2023/12/04 03:53:54;;;;;;;23.70;11.30;;;;;;;-6.58;100.00;101535.41;5045239;28;20440;-74
2023/12/04 03:56:20;;;;;;;24.20;11.90;;;;;;;-6.52;100.00;101522.56;5047051;28;20482;-73
2023/12/04 03:58:47;;;;;;;24.97;10.73;;;;;;;-6.50;100.00;101519.81;5043195;28;20437;-73
2023/12/04 04:01:13;;;;;;;26.97;11.47;;;;;;;-6.47;100.00;101516.88;5050642;28;20455;-74
2023/12/04 04:03:39;;;;;;;25.10;12.23;;;;;;;-6.49;100.00;101506.81;5043621;28;20451;-74
2023/12/04 04:06:06;;;;;;;25.03;10.73;;;;;;;-6.43;100.00;101511.16;5050740;28;20464;-73
2023/12/04 04:08:34;;;;;;;26.47;12.27;;;;;;;-6.36;100.00;101511.19;5049853;28;20475;-73
2023/12/04 04:11:00;;;;;;;22.33;10.90;;;;;;;-6.35;100.00;101505.88;5052723;28;20998;-74
2023/12/04 04:13:27;;;;;;;21.33;11.53;;;;;;;-6.33;100.00;101508.25;5037918;28;20969;-74
2023/12/04 04:15:53;;;;;;;27.93;12.10;;;;;;;-6.32;100.00;101510.59;5045799;28;20983;-74
2023/12/04 04:18:19;;;;;;;22.53;11.30;;;;;;;-6.28;100.00;101509.25;5057611;28;20480;-73
2023/12/04 04:20:46;;;;;;;28.00;11.03;;;;;;;-6.24;100.00;101507.06;5047503;28;20468;-74
2023/12/04 04:23:12;;;;;;;23.67;10.10;;;;;;;-6.23;100.00;101504.31;5037557;28;20453;-74
2023/12/04 04:25:40;;;;;;;23.87;10.87;;;;;;;-6.25;100.00;101496.03;5048557;28;20457;-74
2023/12/04 04:28:06;;;;;;;21.43;10.90;;;;;;;-6.23;100.00;101501.75;5045041;28;20473;-74
2023/12/04 04:30:32;;;;;;;21.40;10.87;;;;;;;-6.17;100.00;101502.75;5049930;28;20445;-73
2023/12/04 04:32:59;;;;;;;25.00;11.20;;;;;;;-6.12;100.00;101495.25;5050358;28;20441;-74
2023/12/04 04:35:25;;;;;;;25.50;11.77;;;;;;;-6.11;100.00;101495.03;5047770;28;20446;-73
2023/12/04 04:37:51;;;;;;;23.63;12.33;;;;;;;-6.14;100.00;101495.44;5047412;28;20457;-74
2023/12/04 04:40:18;;;;;;;25.37;11.00;;;;;;;-6.11;100.00;101484.00;5053725;28;20540;-73
2023/12/04 04:42:45;;;;;;;22.23;11.00;;;;;;;-6.15;100.00;101493.06;5052031;28;20446;-74
2023/12/04 04:45:12;;;;;;;23.87;10.70;;;;;;;-6.22;100.00;101485.34;5050216;28;20453;-74
2023/12/04 04:47:38;;;;;;;24.83;12.27;;;;;;;-6.24;100.00;101484.75;5048649;28;20485;-74
2023/12/04 04:50:05;;;;;;;28.73;11.67;;;;;;;-6.24;100.00;101481.38;5049394;28;20464;-74
2023/12/04 04:52:31;;;;;;;22.20;11.37;;;;;;;-6.21;100.00;101468.94;5055422;28;20454;-74
2023/12/04 04:54:58;;;;;;;25.40;12.70;;;;;;;-6.23;100.00;101480.38;5045215;28;20453;-74
2023/12/04 04:57:24;;;;;;;26.87;14.13;;;;;;;-6.22;100.00;101477.63;5051586;28;20485;-74
2023/12/04 04:59:52;;;;;;;27.90;13.37;;;;;;;-6.18;100.00;101471.13;5047349;28;20441;-74
2023/12/04 05:02:18;;;;;;;27.83;12.50;;;;;;;-6.17;100.00;101475.28;5044990;28;20974;-74
2023/12/04 05:04:44;;;;;;;24.53;12.93;;;;;;;-6.10;100.00;101473.53;5043226;28;20458;-74
2023/12/04 05:07:11;;;;;;;22.83;11.93;;;;;;;-6.06;100.00;101472.13;5049996;28;20461;-74
2023/12/04 05:09:37;;;;;;;22.57;11.50;;;;;;;-5.99;100.00;101475.50;5048799;28;20580;-73
2023/12/04 05:12:04;;;;;;;25.07;12.97;;;;;;;-5.97;100.00;101477.88;5047066;28;20565;-74
2023/12/04 05:14:30;;;;;;;28.17;12.07;;;;;;;-5.88;100.00;101476.69;5041708;28;20438;-74
2023/12/04 05:16:58;;;;;;;24.10;11.50;;;;;;;-5.87;100.00;101476.50;5054157;28;20928;-73
2023/12/04 05:19:24;;;;;;;25.63;11.40;;;;;;;-5.82;100.00;101468.19;5040107;28;20449;-73
2023/12/04 05:21:51;;;;;;;28.73;12.80;;;;;;;-5.80;100.00;101464.44;5037754;28;20449;-74
2023/12/04 05:24:17;;;;;;;26.00;12.57;;;;;;;-5.81;100.00;101472.38;5052419;28;20468;-74
2023/12/04 05:26:44;;;;;;;27.10;11.30;;;;;;;-5.80;100.00;101471.38;5051222;28;20479;-73
2023/12/04 05:29:10;;;;;;;24.63;11.67;;;;;;;-5.75;100.00;101467.19;5045663;28;20473;-74
2023/12/04 05:31:36;;;;;;;24.87;10.80;;;;;;;-5.70;100.00;101464.03;5046686;28;20445;-74
2023/12/04 05:34:04;;;;;;;25.33;12.03;;;;;;;-5.67;100.00;101467.00;5051628;28;20462;-74
2023/12/04 05:36:30;;;;;;;23.13;11.57;;;;;;;-5.62;100.00;101466.38;5043754;28;20473;-73
2023/12/04 05:38:57;;;;;;;24.33;11.00;;;;;;;-5.60;100.00;101461.84;5051930;28;20448;-74
2023/12/04 05:41:23;;;;;;;24.43;11.07;;;;;;;-5.59;100.00;101466.78;5048727;28;20460;-73
2023/12/04 05:43:49;;;;;;;22.23;12.33;;;;;;;-5.57;100.00;101469.16;5048954;28;20476;-74
2023/12/04 05:46:16;;;;;;;25.37;12.07;;;;;;;-5.55;100.00;101456.91;5041650;28;20469;-74
2023/12/04 05:48:43;;;;;;;21.33;11.00;;;;;;;-5.52;100.00;101462.44;5041760;28;20473;-74
2023/12/04 05:51:12;;;;;;;26.73;12.33;;;;;;;-5.49;100.00;101449.16;5041828;28;20454;-73
2023/12/04 05:53:38;;;;;;;23.43;11.73;;;;;;;-5.47;100.00;101449.78;5047104;28;20511;-74
2023/12/04 05:56:06;;;;;;;25.93;11.97;;;;;;;-5.44;100.00;101444.22;5047321;28;20460;-74
2023/12/04 05:58:32;;;;;;;23.87;11.03;;;;;;;-5.43;100.00;101438.09;5046670;28;20450;-74
2023/12/04 06:00:59;;;;;;;26.47;13.03;;;;;;;-5.40;100.00;101436.88;5049818;28;20806;-74
2023/12/04 06:03:25;;;;;;;30.40;11.93;;;;;;;-5.40;100.00;101445.41;5045396;28;20450;-74
2023/12/04 06:05:51;;;;;;;19.53;10.90;;;;;;;-5.35;100.00;101437.06;5045013;28;20453;-74
2023/12/04 06:08:19;;;;;;;23.43;12.17;;;;;;;-5.36;100.00;101440.63;5056895;28;20470;-74
2023/12/04 06:10:47;;;;;;;25.03;12.17;;;;;;;-5.36;100.00;101433.72;5050142;28;20449;-74
2023/12/04 06:13:13;;;;;;;22.47;11.40;;;;;;;-5.34;100.00;101441.25;5051788;28;20986;-74
2023/12/04 06:15:39;;;;;;;26.40;11.97;;;;;;;-5.32;100.00;101441.81;5050057;28;20819;-73
2023/12/04 06:18:05;;;;;;;26.03;11.90;;;;;;;-5.32;100.00;101439.25;5044636;28;20472;-73
2023/12/04 06:20:32;;;;;;;22.57;11.83;;;;;;;-5.27;100.00;101435.09;5062794;28;20455;-74
2023/12/04 06:22:59;;;;;;;22.10;11.53;;;;;;;-5.25;100.00;101442.59;5049174;28;20464;-74
2023/12/04 06:25:27;;;;;;;25.50;12.20;;;;;;;-5.25;100.00;101437.44;5049022;28;20559;-74
2023/12/04 06:27:54;;;;;;;22.87;11.70;;;;;;;-5.23;100.00;101443.97;5044268;28;20464;-74
2023/12/04 06:30:21;;;;;;;26.30;12.57;;;;;;;-5.23;100.00;101431.09;5044778;28;20447;-74
2023/12/04 06:32:48;;;;;;;28.30;11.73;;;;;;;-5.20;100.00;101435.06;5053899;28;20465;-74
2023/12/04 06:35:15;;;;;;;28.77;13.47;;;;;;;-5.18;100.00;101436.44;5041601;28;20453;-74
2023/12/04 06:37:44;;;;;;;105.67;39.60;;;;;;;-5.12;100.00;101434.88;5044129;28;20477;-74
2023/12/04 06:40:11;;;;;;;58.83;26.27;;;;;;;-5.06;100.00;101427.13;5042408;28;20468;-74
2023/12/04 06:42:39;;;;;;;41.73;20.17;;;;;;;-5.00;100.00;101428.09;5038024;28;20463;-73
2023/12/04 06:45:08;;;;;;;26.80;13.83;;;;;;;-4.95;100.00;101423.91;5042946;28;20459;-73
2023/12/04 06:47:35;;;;;;;32.23;14.97;;;;;;;-4.90;100.00;101431.03;5039761;28;21097;-74
2023/12/04 06:50:01;;;;;;;23.03;12.70;;;;;;;-4.83;100.00;101417.13;5042336;28;21028;-74
2023/12/04 06:52:28;;;;;;;26.43;13.47;;;;;;;-4.76;100.00;101425.59;5040145;28;20976;-75
2023/12/04 06:54:54;;;;;;;27.20;13.30;;;;;;;-4.71;100.00;101427.59;5043475;28;20463;-74
2023/12/04 06:57:21;;;;;;;25.27;13.50;;;;;;;-4.62;100.00;101421.97;5040501;28;21083;-74
2023/12/04 06:59:49;;;;;;;27.13;14.40;;;;;;;-4.56;100.00;101420.38;5040729;28;20447;-73
2023/12/04 07:02:15;;;;;;;27.30;15.07;;;;;;;-4.52;100.00;101419.75;5036754;28;20903;-75
2023/12/04 07:04:41;;;;;;;23.50;13.00;;;;;;;-4.44;100.00;101419.53;5038704;28;20973;-74
2023/12/04 07:07:08;;;;;;;25.20;12.80;;;;;;;-4.40;100.00;101412.94;5040336;28;20560;-74
2023/12/04 07:09:34;;;;;;;25.30;12.33;;;;;;;-4.35;100.00;101407.19;5044386;28;20471;-75
2023/12/04 07:12:02;;;;;;;25.00;12.10;;;;;;;-4.29;100.00;101409.72;5042096;28;20864;-74
2023/12/04 07:14:28;;;;;;;25.17;12.77;;;;;;;-4.26;100.00;101401.56;5040432;28;20460;-74
2023/12/04 07:16:56;;;;;;;24.33;12.17;;;;;;;-4.22;100.00;101407.88;5040429;28;20976;-74
2023/12/04 07:19:23;;;;;;;26.13;12.33;;;;;;;-4.17;100.00;101402.09;5041702;28;20466;-74
2023/12/04 07:21:49;;;;;;;26.60;13.10;;;;;;;-4.13;100.00;101404.06;5037874;28;20543;-74
2023/12/04 07:24:16;;;;;;;26.37;12.33;;;;;;;-4.09;100.00;101394.88;5034157;28;20491;-74
2023/12/04 07:26:42;;;;;;;30.47;13.20;;;;;;;-4.04;100.00;101400.19;5042341;28;20512;-74
2023/12/04 07:29:09;;;;;;;30.90;13.37;;;;;;;-4.00;100.00;101398.78;5041967;28;20478;-74
2023/12/04 07:31:35;;;;;;;29.13;13.27;;;;;;;-3.94;100.00;101400.53;5044812;28;20470;-75
2023/12/04 07:34:03;;;;;;;24.50;12.10;;;;;;;-3.90;100.00;101403.47;5045080;28;20464;-75
2023/12/04 07:36:30;;;;;;;22.53;11.37;;;;;;;-3.86;100.00;101402.06;5039326;28;20503;-74
2023/12/04 07:38:56;;;;;;;25.10;12.73;;;;;;;-3.82;100.00;101398.06;5040746;28;20467;-74
2023/12/04 07:41:22;;;;;;;24.83;13.13;;;;;;;-3.78;100.00;101399.22;5041732;28;20475;-74
2023/12/04 07:43:49;;;;;;;23.67;11.37;;;;;;;-3.74;100.00;101398.56;5040340;28;20481;-74
2023/12/04 07:46:15;;;;;;;23.93;11.87;;;;;;;-3.69;100.00;101387.63;5045247;28;20480;-74
2023/12/04 07:48:43;;;;;;;23.87;12.27;;;;;;;-3.67;100.00;101391.59;5038444;28;21463;-74
2023/12/04 07:51:11;;;;;;;31.60;15.30;;;;;;;-3.63;100.00;101390.13;5043129;28;20533;-74
2023/12/04 07:53:37;;;;;;;38.37;17.73;;;;;;;-3.59;100.00;101390.50;5038681;28;20851;-74
2023/12/04 07:56:04;;;;;;;31.90;17.13;;;;;;;-3.55;100.00;101389.88;5041649;28;20464;-74
2023/12/04 07:58:31;;;;;;;29.57;15.43;;;;;;;-3.52;100.00;101386.06;5044096;28;20456;-74
2023/12/04 08:00:57;;;;;;;30.93;13.87;;;;;;;-3.50;100.00;101387.44;5042568;28;20463;-75
2023/12/04 08:03:24;;;;;;;26.57;13.20;;;;;;;-3.45;100.00;101379.84;5039042;28;20963;-75
2023/12/04 08:05:51;;;;;;;29.30;12.90;;;;;;;-3.42;100.00;101378.63;5041494;28;20604;-73
2023/12/04 08:08:18;;;;;;;24.67;12.63;;;;;;;-3.37;100.00;101383.94;5042664;28;20473;-74
2023/12/04 08:10:45;;;;;;;24.73;12.60;;;;;;;-3.32;100.00;101384.09;5038132;28;20953;-75
2023/12/04 08:13:11;;;;;;;29.60;13.53;;;;;;;-3.28;100.00;101383.44;5034971;28;20453;-74
2023/12/04 08:15:37;;;;;;;24.60;12.43;;;;;;;-3.23;100.00;101383.56;5047308;28;20979;-75
2023/12/04 08:18:04;;;;;;;26.43;12.50;;;;;;;-3.18;100.00;101380.34;5044135;28;20833;-74
2023/12/04 08:20:30;;;;;;;27.37;13.37;;;;;;;-3.12;100.00;101377.69;5044871;28;20465;-74
2023/12/04 08:22:57;;;;;;;29.13;14.33;;;;;;;-3.06;100.00;101383.78;5041112;28;21059;-74
2023/12/04 08:25:24;;;;;;;28.13;14.27;;;;;;;-3.01;100.00;101376.19;5043454;28;20461;-75
2023/12/04 08:27:51;;;;;;;25.03;13.17;;;;;;;-2.94;100.00;101375.09;5047835;28;20490;-74
2023/12/04 08:30:17;;;;;;;25.80;12.83;;;;;;;-2.89;100.00;101377.00;5036401;28;20840;-74
2023/12/04 08:32:44;;;;;;;23.53;12.67;;;;;;;-2.85;100.00;101384.09;5039903;28;20494;-74
2023/12/04 08:35:10;;;;;;;28.93;13.63;;;;;;;-2.79;100.00;101370.34;5049129;28;20199;-74
2023/12/04 08:37:36;;;;;;;24.97;14.10;;;;;;;-2.75;100.00;101370.69;5043634;28;20469;-75
2023/12/04 08:40:03;;;;;;;23.43;13.10;;;;;;;-2.70;100.00;101378.56;5040580;28;20454;-74
2023/12/04 08:42:31;;;;;;;26.53;14.13;;;;;;;-2.65;100.00;101365.78;5044381;28;20197;-74
2023/12/04 08:44:57;;;;;;;23.80;12.93;;;;;;;-2.60;100.00;101364.09;5048636;28;20206;-74
2023/12/04 08:47:24;;;;;;;28.27;14.03;;;;;;;-2.56;100.00;101356.69;5039164;28;20226;-74
2023/12/04 08:49:50;;;;;;;26.73;13.70;;;;;;;-2.51;100.00;101356.81;5042566;28;20723;-74
2023/12/04 08:52:16;;;;;;;24.40;13.07;;;;;;;-2.47;100.00;101366.50;5039400;28;20582;-74
2023/12/04 08:54:43;;;;;;;26.77;12.23;;;;;;;-2.43;100.00;101359.91;5040435;28;20279;-75
2023/12/04 08:57:09;;;;;;;26.03;12.63;;;;;;;-2.37;100.00;101365.97;5038949;28;20492;-74
2023/12/04 08:59:37;;;;;;;25.17;13.47;;;;;;;-2.33;100.00;101365.28;5038477;28;20207;-74
2023/12/04 09:02:04;;;;;;;29.47;13.63;;;;;;;-2.29;100.00;101368.25;5038807;28;20711;-74
2023/12/04 09:04:30;;;;;;;25.53;12.90;;;;;;;-2.23;100.00;101364.78;5044073;28;20202;-74
2023/12/04 09:06:57;;;;;;;25.50;12.87;;;;;;;-2.16;100.00;101362.84;5043198;28;20225;-74
2023/12/04 09:09:23;;;;;;;29.30;14.67;;;;;;;-2.13;100.00;101365.78;5044455;28;20219;-75
2023/12/04 09:11:49;;;;;;;26.83;13.30;;;;;;;-2.06;100.00;101369.06;5041567;28;20196;-74
2023/12/04 09:14:16;;;;;;;28.17;13.90;;;;;;;-2.00;100.00;101364.78;5042251;28;20554;-74
2023/12/04 09:16:44;;;;;;;26.37;13.80;;;;;;;-1.96;100.00;101371.91;5041525;28;20212;-74
2023/12/04 09:19:10;;;;;;;28.43;13.30;;;;;;;-1.92;100.00;101375.59;5044055;28;20581;-75
2023/12/04 09:21:37;;;;;;;28.60;14.40;;;;;;;-1.87;100.00;101390.47;5040736;28;20563;-74
2023/12/04 09:24:03;;;;;;;29.33;15.07;;;;;;;-1.84;100.00;101384.81;5040335;28;20689;-75
2023/12/04 09:26:30;;;;;;;27.37;14.20;;;;;;;-1.79;100.00;101382.34;5038398;28;20721;-74
2023/12/04 09:28:57;;;;;;;29.50;15.10;;;;;;;-1.76;100.00;101382.69;5037828;28;20233;-74
2023/12/04 09:31:23;;;;;;;27.27;14.30;;;;;;;-1.71;100.00;101382.78;5038347;28;20207;-74
2023/12/04 09:33:51;;;;;;;28.70;14.97;;;;;;;-1.68;100.00;101384.94;5039703;28;20219;-74
2023/12/04 09:36:17;;;;;;;32.90;16.60;;;;;;;-1.65;100.00;101384.50;5035322;28;20950;-74
2023/12/04 09:38:45;;;;;;;29.57;14.70;;;;;;;-1.60;100.00;101387.22;5035556;28;20202;-74
2023/12/04 09:41:12;;;;;;;29.70;15.57;;;;;;;-1.53;100.00;101380.09;5040467;28;20203;-74
2023/12/04 09:43:41;;;;;;;25.73;13.70;;;;;;;-1.51;100.00;101380.66;5036876;28;20211;-74
2023/12/04 09:46:08;;;;;;;32.13;15.93;;;;;;;-1.43;100.00;101382.91;5037664;28;20289;-74
2023/12/04 09:48:35;;;;;;;32.40;14.93;;;;;;;-1.36;100.00;101373.22;5042699;28;20195;-74
2023/12/04 09:51:04;;;;;;;27.40;14.33;;;;;;;-1.31;100.00;101369.97;5039371;28;20204;-74
2023/12/04 09:53:32;;;;;;;27.63;15.20;;;;;;;-1.26;100.00;101368.25;5034451;28;20207;-74
2023/12/04 09:56:00;;;;;;;30.60;15.57;;;;;;;-1.21;100.00;101367.56;5037933;28;20235;-73
2023/12/04 09:58:29;;;;;;;30.30;16.27;;;;;;;-1.15;100.00;101362.25;5041011;28;20222;-74
2023/12/04 10:00:56;;;;;;;34.77;15.60;;;;;;;-1.10;100.00;101359.75;5040246;28;20195;-75
2023/12/04 10:03:23;;;;;;;27.43;14.57;;;;;;;-1.06;100.00;101353.09;5040574;28;20196;-75
2023/12/04 10:05:49;;;;;;;28.87;14.77;;;;;;;-0.98;100.00;101353.53;5040642;28;20215;-74
2023/12/04 10:08:17;;;;;;;31.93;15.53;;;;;;;-0.93;100.00;101346.88;5038175;28;20234;-74
2023/12/04 10:10:44;;;;;;;33.67;15.40;;;;;;;-0.88;100.00;101345.94;5035205;28;20300;-74
2023/12/04 10:13:10;;;;;;;28.97;14.77;;;;;;;-0.83;100.00;101341.88;5038081;28;20580;-75
2023/12/04 10:15:47;;;;;;;28.93;13.60;;;;;;;-0.77;100.00;101334.72;5041155;28;20536;-74
2023/12/04 10:18:25;;;;;;;28.67;14.20;;;;;;;-0.72;100.00;101336.63;5037222;28;20290;-74
2023/12/04 10:20:53;;;;;;;30.60;15.13;;;;;;;-0.68;100.00;101339.53;5037940;28;20195;-75
2023/12/04 10:23:21;;;;;;;25.70;13.80;;;;;;;-0.67;100.00;101328.94;5043116;28;20524;-74
2023/12/04 10:25:50;;;;;;;30.17;13.67;;;;;;;-0.64;100.00;101331.06;5040489;28;20207;-74
2023/12/04 10:28:17;;;;;;;19.43;12.03;;;;;;;-0.58;100.00;101334.53;5040721;28;20288;-74
2023/12/04 10:30:43;;;;;;;24.13;13.27;;;;;;;-0.55;100.00;101330.44;5042939;28;20400;-74
2023/12/04 10:33:10;;;;;;;22.53;12.90;;;;;;;-0.52;100.00;101328.41;5039806;28;20628;-74
2023/12/04 10:35:38;;;;;;;25.47;13.13;;;;;;;-0.47;100.00;101322.28;5039680;28;20200;-75
2023/12/04 10:38:05;;;;;;;23.30;12.70;;;;;;;-0.42;100.00;101317.19;5045041;28;20223;-74
2023/12/04 10:40:35;;;;;;;22.87;12.80;;;;;;;-0.35;100.00;101310.00;5041712;28;20191;-74
2023/12/04 10:43:12;;;;;;;20.83;11.10;;;;;;;-0.32;100.00;101308.75;5040028;28;20537;-74
2023/12/04 10:45:40;;;;;;;20.77;12.03;;;;;;;-0.28;100.00;101312.47;5038398;28;20203;-74
2023/12/04 10:48:07;;;;;;;20.27;10.87;;;;;;;-0.28;100.00;101292.50;5033696;28;20936;-74
2023/12/04 10:50:34;;;;;;;22.00;11.00;;;;;;;-0.22;100.00;101302.97;5035391;28;20218;-74
2023/12/04 10:53:02;;;;;;;16.93;10.03;;;;;;;-0.16;100.00;101293.19;5041021;28;20207;-75
2023/12/04 10:55:28;;;;;;;21.20;11.67;;;;;;;-0.10;100.00;101287.03;5038250;28;20260;-74
2023/12/04 10:57:57;;;;;;;18.63;10.20;;;;;;;-0.08;100.00;101279.81;5042179;28;20226;-74
2023/12/04 11:00:24;;;;;;;17.87;10.27;;;;;;;-0.05;100.00;101271.53;5039835;28;20676;-75